sensor_id;sensor_type;location;lat;lon;timestamp;temperature;humidity
6270;DHT22;3168;51.684;6.954;2022-08-02T00:01:24;14.50;99.90
6270;DHT22;3168;51.684;6.954;2022-08-02T00:04:03;14.50;99.90
6270;DHT22;3168;51.684;6.954;2022-08-02T00:06:41;14.50;99.90
6270;DHT22;3168;51.684;6.954;2022-08-02T00:09:19;14.50;99.90
6270;DHT22;3168;51.684;6.954;2022-08-02T00:11:57;14.40;99.90
6270;DHT22;3168;51.684;6.954;2022-08-02T00:14:35;14.50;99.90
6270;DHT22;3168;51.684;6.954;2022-08-02T00:17:13;14.40;99.90
6270;DHT22;3168;51.684;6.954;2022-08-02T00:19:51;14.50;99.90
6270;DHT22;3168;51.684;6.954;2022-08-02T00:22:30;14.40;99.90
6270;DHT22;3168;51.684;6.954;2022-08-02T00:25:08;14.40;99.90
6270;DHT22;3168;51.684;6.954;2022-08-02T00:27:46;14.40;99.90
6270;DHT22;3168;51.684;6.954;2022-08-02T00:30:24;14.30;99.90
6270;DHT22;3168;51.684;6.954;2022-08-02T00:33:02;14.30;99.90
6270;DHT22;3168;51.684;6.954;2022-08-02T00:35:40;14.30;99.90
6270;DHT22;3168;51.684;6.954;2022-08-02T00:38:19;14.20;99.90
6270;DHT22;3168;51.684;6.954;2022-08-02T00:40:57;14.10;99.90
6270;DHT22;3168;51.684;6.954;2022-08-02T00:43:35;14.20;99.90
6270;DHT22;3168;51.684;6.954;2022-08-02T00:46:14;14.10;99.90
6270;DHT22;3168;51.684;6.954;2022-08-02T00:48:52;14.00;99.90
6270;DHT22;3168;51.684;6.954;2022-08-02T00:51:31;13.90;99.90
6270;DHT22;3168;51.684;6.954;2022-08-02T00:54:09;13.90;99.90
6270;DHT22;3168;51.684;6.954;2022-08-02T00:56:47;13.90;99.90
6270;DHT22;3168;51.684;6.954;2022-08-02T00:59:25;14.00;99.90
6270;DHT22;3168;51.684;6.954;2022-08-02T01:02:03;14.00;99.90
6270;DHT22;3168;51.684;6.954;2022-08-02T01:04:42;14.00;99.90
6270;DHT22;3168;51.684;6.954;2022-08-02T01:07:20;14.10;99.90
6270;DHT22;3168;51.684;6.954;2022-08-02T01:09:58;14.10;99.90
6270;DHT22;3168;51.684;6.954;2022-08-02T01:12:36;14.10;99.90
6270;DHT22;3168;51.684;6.954;2022-08-02T01:15:15;14.20;99.90
6270;DHT22;3168;51.684;6.954;2022-08-02T01:18:04;14.20;99.90
6270;DHT22;3168;51.684;6.954;2022-08-02T01:21:16;14.20;99.90
6270;DHT22;3168;51.684;6.954;2022-08-02T01:23:52;14.00;99.90
6270;DHT22;3168;51.684;6.954;2022-08-02T01:26:36;14.00;99.90
6270;DHT22;3168;51.684;6.954;2022-08-02T01:29:28;14.00;99.90
6270;DHT22;3168;51.684;6.954;2022-08-02T01:32:12;14.00;99.90
6270;DHT22;3168;51.684;6.954;2022-08-02T01:34:51;14.00;99.90
6270;DHT22;3168;51.684;6.954;2022-08-02T01:37:36;14.00;99.90
6270;DHT22;3168;51.684;6.954;2022-08-02T01:40:14;14.00;99.90
6270;DHT22;3168;51.684;6.954;2022-08-02T01:42:51;13.80;99.90
6270;DHT22;3168;51.684;6.954;2022-08-02T01:45:31;14.00;99.90
6270;DHT22;3168;51.684;6.954;2022-08-02T01:48:08;14.00;99.90
6270;DHT22;3168;51.684;6.954;2022-08-02T01:50:46;14.00;99.90
6270;DHT22;3168;51.684;6.954;2022-08-02T01:53:24;13.80;99.90
6270;DHT22;3168;51.684;6.954;2022-08-02T01:56:03;13.70;99.90
6270;DHT22;3168;51.684;6.954;2022-08-02T01:58:41;13.50;99.90
6270;DHT22;3168;51.684;6.954;2022-08-02T02:01:19;13.40;99.90
6270;DHT22;3168;51.684;6.954;2022-08-02T02:03:58;13.30;99.90
6270;DHT22;3168;51.684;6.954;2022-08-02T02:06:35;13.30;99.90
6270;DHT22;3168;51.684;6.954;2022-08-02T02:09:14;13.20;99.90
6270;DHT22;3168;51.684;6.954;2022-08-02T02:11:52;13.20;99.90
6270;DHT22;3168;51.684;6.954;2022-08-02T02:14:30;13.20;99.90
6270;DHT22;3168;51.684;6.954;2022-08-02T02:17:08;13.10;99.90
6270;DHT22;3168;51.684;6.954;2022-08-02T02:19:46;13.00;99.90
6270;DHT22;3168;51.684;6.954;2022-08-02T02:22:24;12.90;99.90
6270;DHT22;3168;51.684;6.954;2022-08-02T02:25:03;12.80;99.90
6270;DHT22;3168;51.684;6.954;2022-08-02T02:27:45;12.60;99.90
6270;DHT22;3168;51.684;6.954;2022-08-02T02:30:20;12.60;99.90
6270;DHT22;3168;51.684;6.954;2022-08-02T02:33:00;12.70;99.90
6270;DHT22;3168;51.684;6.954;2022-08-02T02:35:36;12.70;99.90
6270;DHT22;3168;51.684;6.954;2022-08-02T02:38:15;12.70;99.90
6270;DHT22;3168;51.684;6.954;2022-08-02T02:40:53;12.80;99.90
6270;DHT22;3168;51.684;6.954;2022-08-02T02:43:31;12.80;99.90
6270;DHT22;3168;51.684;6.954;2022-08-02T02:46:09;12.80;99.90
6270;DHT22;3168;51.684;6.954;2022-08-02T02:48:48;12.80;99.90
6270;DHT22;3168;51.684;6.954;2022-08-02T02:51:25;12.80;99.90
6270;DHT22;3168;51.684;6.954;2022-08-02T02:54:03;12.80;99.90
6270;DHT22;3168;51.684;6.954;2022-08-02T02:56:42;12.70;99.90
6270;DHT22;3168;51.684;6.954;2022-08-02T02:59:20;12.60;99.90
6270;DHT22;3168;51.684;6.954;2022-08-02T03:01:58;12.60;99.90
6270;DHT22;3168;51.684;6.954;2022-08-02T03:04:36;12.70;99.90
6270;DHT22;3168;51.684;6.954;2022-08-02T03:07:15;12.70;99.90
6270;DHT22;3168;51.684;6.954;2022-08-02T03:09:53;12.80;99.90
6270;DHT22;3168;51.684;6.954;2022-08-02T03:12:32;12.70;99.90
6270;DHT22;3168;51.684;6.954;2022-08-02T03:15:10;12.70;99.90
6270;DHT22;3168;51.684;6.954;2022-08-02T03:17:48;12.70;99.90
6270;DHT22;3168;51.684;6.954;2022-08-02T03:20:27;12.60;99.90
6270;DHT22;3168;51.684;6.954;2022-08-02T03:23:05;12.70;99.90
6270;DHT22;3168;51.684;6.954;2022-08-02T03:25:43;12.80;99.90
6270;DHT22;3168;51.684;6.954;2022-08-02T03:28:21;12.80;99.90
6270;DHT22;3168;51.684;6.954;2022-08-02T03:30:59;12.60;99.90
6270;DHT22;3168;51.684;6.954;2022-08-02T03:33:37;12.70;99.90
6270;DHT22;3168;51.684;6.954;2022-08-02T03:36:16;12.80;99.90
6270;DHT22;3168;51.684;6.954;2022-08-02T03:38:54;12.80;99.90
6270;DHT22;3168;51.684;6.954;2022-08-02T03:41:32;12.90;99.90
6270;DHT22;3168;51.684;6.954;2022-08-02T03:44:10;12.80;99.90
6270;DHT22;3168;51.684;6.954;2022-08-02T03:46:48;12.80;99.90
6270;DHT22;3168;51.684;6.954;2022-08-02T03:49:26;12.80;99.90
6270;DHT22;3168;51.684;6.954;2022-08-02T03:52:05;12.80;99.90
6270;DHT22;3168;51.684;6.954;2022-08-02T03:54:43;12.70;99.90
6270;DHT22;3168;51.684;6.954;2022-08-02T03:57:21;12.70;99.90
6270;DHT22;3168;51.684;6.954;2022-08-02T03:59:59;12.70;99.90
6270;DHT22;3168;51.684;6.954;2022-08-02T04:02:37;12.80;99.90
6270;DHT22;3168;51.684;6.954;2022-08-02T04:05:16;12.80;99.90
6270;DHT22;3168;51.684;6.954;2022-08-02T04:07:53;12.80;99.90
6270;DHT22;3168;51.684;6.954;2022-08-02T04:10:32;12.80;99.90
6270;DHT22;3168;51.684;6.954;2022-08-02T04:13:10;12.70;99.90
6270;DHT22;3168;51.684;6.954;2022-08-02T04:15:49;12.70;99.90
6270;DHT22;3168;51.684;6.954;2022-08-02T04:18:28;12.70;99.90
6270;DHT22;3168;51.684;6.954;2022-08-02T04:21:05;12.70;99.90
6270;DHT22;3168;51.684;6.954;2022-08-02T04:23:44;12.80;99.90
6270;DHT22;3168;51.684;6.954;2022-08-02T04:26:21;12.80;99.90
6270;DHT22;3168;51.684;6.954;2022-08-02T04:28:59;12.80;99.90
6270;DHT22;3168;51.684;6.954;2022-08-02T04:31:37;12.90;99.90
6270;DHT22;3168;51.684;6.954;2022-08-02T04:34:15;12.90;99.90
6270;DHT22;3168;51.684;6.954;2022-08-02T04:36:54;12.80;99.90
6270;DHT22;3168;51.684;6.954;2022-08-02T04:39:33;12.80;99.90
6270;DHT22;3168;51.684;6.954;2022-08-02T04:42:18;12.80;99.90
6270;DHT22;3168;51.684;6.954;2022-08-02T04:44:49;12.90;99.90
6270;DHT22;3168;51.684;6.954;2022-08-02T04:47:27;12.90;99.90
6270;DHT22;3168;51.684;6.954;2022-08-02T04:50:06;12.90;99.90
6270;DHT22;3168;51.684;6.954;2022-08-02T04:52:44;12.90;99.90
6270;DHT22;3168;51.684;6.954;2022-08-02T04:55:22;12.90;99.90
6270;DHT22;3168;51.684;6.954;2022-08-02T04:58:00;12.90;99.90
6270;DHT22;3168;51.684;6.954;2022-08-02T05:00:38;12.90;99.90
6270;DHT22;3168;51.684;6.954;2022-08-02T05:03:16;13.10;99.90
6270;DHT22;3168;51.684;6.954;2022-08-02T05:05:55;13.20;99.90
6270;DHT22;3168;51.684;6.954;2022-08-02T05:08:33;13.20;99.90
6270;DHT22;3168;51.684;6.954;2022-08-02T05:11:11;13.40;99.90
6270;DHT22;3168;51.684;6.954;2022-08-02T05:13:49;13.50;99.90
6270;DHT22;3168;51.684;6.954;2022-08-02T05:16:27;13.60;99.90
6270;DHT22;3168;51.684;6.954;2022-08-02T05:19:05;13.70;99.90
6270;DHT22;3168;51.684;6.954;2022-08-02T05:21:44;13.80;99.90
6270;DHT22;3168;51.684;6.954;2022-08-02T05:24:22;13.90;99.90
6270;DHT22;3168;51.684;6.954;2022-08-02T05:27:00;14.00;99.90
6270;DHT22;3168;51.684;6.954;2022-08-02T05:29:38;14.10;99.90
6270;DHT22;3168;51.684;6.954;2022-08-02T05:32:16;14.10;99.90
6270;DHT22;3168;51.684;6.954;2022-08-02T05:34:54;14.20;99.90
6270;DHT22;3168;51.684;6.954;2022-08-02T05:37:33;14.30;99.90
6270;DHT22;3168;51.684;6.954;2022-08-02T05:40:11;14.30;99.90
6270;DHT22;3168;51.684;6.954;2022-08-02T05:42:49;14.40;99.90
6270;DHT22;3168;51.684;6.954;2022-08-02T05:45:32;14.50;99.90
6270;DHT22;3168;51.684;6.954;2022-08-02T05:48:07;14.60;99.90
6270;DHT22;3168;51.684;6.954;2022-08-02T05:50:44;14.70;99.90
6270;DHT22;3168;51.684;6.954;2022-08-02T05:53:27;14.80;99.90
6270;DHT22;3168;51.684;6.954;2022-08-02T05:56:06;14.90;99.90
6270;DHT22;3168;51.684;6.954;2022-08-02T05:58:43;15.00;99.90
6270;DHT22;3168;51.684;6.954;2022-08-02T06:01:21;15.10;99.90
6270;DHT22;3168;51.684;6.954;2022-08-02T06:03:56;15.10;99.90
6270;DHT22;3168;51.684;6.954;2022-08-02T06:06:34;15.20;99.90
6270;DHT22;3168;51.684;6.954;2022-08-02T06:09:14;15.40;99.90
6270;DHT22;3168;51.684;6.954;2022-08-02T06:11:51;15.50;99.90
6270;DHT22;3168;51.684;6.954;2022-08-02T06:14:30;15.60;99.90
6270;DHT22;3168;51.684;6.954;2022-08-02T06:17:08;15.80;99.90
6270;DHT22;3168;51.684;6.954;2022-08-02T06:19:46;15.90;99.90
6270;DHT22;3168;51.684;6.954;2022-08-02T06:22:25;16.10;99.90
6270;DHT22;3168;51.684;6.954;2022-08-02T06:25:04;16.30;99.90
6270;DHT22;3168;51.684;6.954;2022-08-02T06:27:43;16.40;99.90
6270;DHT22;3168;51.684;6.954;2022-08-02T06:30:21;16.50;99.90
6270;DHT22;3168;51.684;6.954;2022-08-02T06:32:59;16.70;99.90
6270;DHT22;3168;51.684;6.954;2022-08-02T06:38:36;16.90;99.10
6270;DHT22;3168;51.684;6.954;2022-08-02T06:41:11;17.00;98.90
6270;DHT22;3168;51.684;6.954;2022-08-02T06:43:52;17.20;98.90
6270;DHT22;3168;51.684;6.954;2022-08-02T06:46:28;17.50;98.40
6270;DHT22;3168;51.684;6.954;2022-08-02T06:49:06;17.50;97.70
6270;DHT22;3168;51.684;6.954;2022-08-02T06:51:45;17.80;96.90
6270;DHT22;3168;51.684;6.954;2022-08-02T06:54:23;18.00;96.10
6270;DHT22;3168;51.684;6.954;2022-08-02T06:57:01;18.20;95.50
6270;DHT22;3168;51.684;6.954;2022-08-02T06:59:39;18.40;95.40
6270;DHT22;3168;51.684;6.954;2022-08-02T07:02:17;18.70;94.20
6270;DHT22;3168;51.684;6.954;2022-08-02T07:04:56;18.90;93.10
6270;DHT22;3168;51.684;6.954;2022-08-02T07:07:34;19.00;92.40
6270;DHT22;3168;51.684;6.954;2022-08-02T07:10:12;19.20;91.10
6270;DHT22;3168;51.684;6.954;2022-08-02T07:12:50;19.30;91.60
6270;DHT22;3168;51.684;6.954;2022-08-02T07:15:28;19.30;87.60
6270;DHT22;3168;51.684;6.954;2022-08-02T07:18:06;19.60;88.40
6270;DHT22;3168;51.684;6.954;2022-08-02T07:20:45;19.70;85.50
6270;DHT22;3168;51.684;6.954;2022-08-02T07:23:23;19.90;83.90
6270;DHT22;3168;51.684;6.954;2022-08-02T07:26:01;20.00;81.50
6270;DHT22;3168;51.684;6.954;2022-08-02T07:28:39;20.20;76.70
6270;DHT22;3168;51.684;6.954;2022-08-02T07:31:17;20.30;73.40
6270;DHT22;3168;51.684;6.954;2022-08-02T07:33:55;20.40;71.70
6270;DHT22;3168;51.684;6.954;2022-08-02T07:36:34;20.50;61.30
6270;DHT22;3168;51.684;6.954;2022-08-02T07:39:12;20.60;60.40
6270;DHT22;3168;51.684;6.954;2022-08-02T07:41:50;20.60;54.30
6270;DHT22;3168;51.684;6.954;2022-08-02T07:44:28;20.70;56.60
6270;DHT22;3168;51.684;6.954;2022-08-02T07:47:06;20.80;55.20
6270;DHT22;3168;51.684;6.954;2022-08-02T07:49:44;21.00;44.10
6270;DHT22;3168;51.684;6.954;2022-08-02T07:52:22;21.10;39.20
6270;DHT22;3168;51.684;6.954;2022-08-02T07:55:01;21.20;39.10
6270;DHT22;3168;51.684;6.954;2022-08-02T07:57:40;21.10;23.70
6270;DHT22;3168;51.684;6.954;2022-08-02T08:00:18;21.30;35.90
6270;DHT22;3168;51.684;6.954;2022-08-02T08:02:56;21.50;27.70
6270;DHT22;3168;51.684;6.954;2022-08-02T08:05:34;21.50;24.40
6270;DHT22;3168;51.684;6.954;2022-08-02T08:08:12;21.80;21.40
6270;DHT22;3168;51.684;6.954;2022-08-02T08:10:50;21.90;12.80
6270;DHT22;3168;51.684;6.954;2022-08-02T08:13:29;22.00;3.80
6270;DHT22;3168;51.684;6.954;2022-08-02T08:16:07;22.20;1.00
6270;DHT22;3168;51.684;6.954;2022-08-02T08:18:45;22.20;1.00
6270;DHT22;3168;51.684;6.954;2022-08-02T08:21:23;22.20;1.00
6270;DHT22;3168;51.684;6.954;2022-08-02T08:24:02;22.30;1.00
6270;DHT22;3168;51.684;6.954;2022-08-02T08:26:40;22.50;1.00
6270;DHT22;3168;51.684;6.954;2022-08-02T08:29:18;22.80;1.00
6270;DHT22;3168;51.684;6.954;2022-08-02T08:31:57;22.80;1.00
6270;DHT22;3168;51.684;6.954;2022-08-02T08:34:35;22.80;1.00
6270;DHT22;3168;51.684;6.954;2022-08-02T08:37:13;22.80;1.00
6270;DHT22;3168;51.684;6.954;2022-08-02T08:39:51;22.90;1.00
6270;DHT22;3168;51.684;6.954;2022-08-02T08:42:30;23.00;1.00
6270;DHT22;3168;51.684;6.954;2022-08-02T08:45:08;23.30;1.00
6270;DHT22;3168;51.684;6.954;2022-08-02T08:47:50;23.30;1.00
6270;DHT22;3168;51.684;6.954;2022-08-02T08:50:25;23.40;1.00
6270;DHT22;3168;51.684;6.954;2022-08-02T08:53:04;23.60;1.00
6270;DHT22;3168;51.684;6.954;2022-08-02T08:55:41;23.60;1.00
6270;DHT22;3168;51.684;6.954;2022-08-02T08:58:20;23.70;1.00
6270;DHT22;3168;51.684;6.954;2022-08-02T09:00:58;23.80;1.00
6270;DHT22;3168;51.684;6.954;2022-08-02T09:03:36;23.90;1.00
6270;DHT22;3168;51.684;6.954;2022-08-02T09:06:14;23.80;1.00
6270;DHT22;3168;51.684;6.954;2022-08-02T09:08:53;24.00;1.00
6270;DHT22;3168;51.684;6.954;2022-08-02T09:11:31;24.20;1.00
6270;DHT22;3168;51.684;6.954;2022-08-02T09:14:10;24.20;1.00
6270;DHT22;3168;51.684;6.954;2022-08-02T09:16:48;24.10;1.00
6270;DHT22;3168;51.684;6.954;2022-08-02T09:19:26;24.30;1.00
6270;DHT22;3168;51.684;6.954;2022-08-02T09:22:06;24.40;1.00
6270;DHT22;3168;51.684;6.954;2022-08-02T09:24:45;24.50;1.00
6270;DHT22;3168;51.684;6.954;2022-08-02T09:27:22;24.40;1.00
6270;DHT22;3168;51.684;6.954;2022-08-02T09:30:01;24.50;1.00
6270;DHT22;3168;51.684;6.954;2022-08-02T09:32:44;24.60;1.00
6270;DHT22;3168;51.684;6.954;2022-08-02T09:35:32;24.70;1.00
6270;DHT22;3168;51.684;6.954;2022-08-02T09:38:11;24.80;1.00
6270;DHT22;3168;51.684;6.954;2022-08-02T09:40:48;24.90;1.00
6270;DHT22;3168;51.684;6.954;2022-08-02T09:43:41;25.10;1.00
6270;DHT22;3168;51.684;6.954;2022-08-02T09:46:24;25.10;1.00
6270;DHT22;3168;51.684;6.954;2022-08-02T09:49:03;25.10;1.00
6270;DHT22;3168;51.684;6.954;2022-08-02T09:51:48;25.20;1.00
6270;DHT22;3168;51.684;6.954;2022-08-02T09:54:26;25.10;1.00
6270;DHT22;3168;51.684;6.954;2022-08-02T09:57:03;25.00;1.00
6270;DHT22;3168;51.684;6.954;2022-08-02T09:59:50;24.80;1.00
6270;DHT22;3168;51.684;6.954;2022-08-02T10:02:19;24.90;1.00
6270;DHT22;3168;51.684;6.954;2022-08-02T10:04:58;25.00;1.00
6270;DHT22;3168;51.684;6.954;2022-08-02T10:07:36;25.40;1.00
6270;DHT22;3168;51.684;6.954;2022-08-02T10:10:15;25.40;1.00
6270;DHT22;3168;51.684;6.954;2022-08-02T10:12:53;25.40;1.00
6270;DHT22;3168;51.684;6.954;2022-08-02T10:15:31;25.50;1.00
6270;DHT22;3168;51.684;6.954;2022-08-02T10:18:09;25.50;1.00
6270;DHT22;3168;51.684;6.954;2022-08-02T10:20:47;25.50;1.00
6270;DHT22;3168;51.684;6.954;2022-08-02T10:23:25;25.50;1.00
6270;DHT22;3168;51.684;6.954;2022-08-02T10:26:04;25.70;1.00
6270;DHT22;3168;51.684;6.954;2022-08-02T10:28:42;25.70;1.00
6270;DHT22;3168;51.684;6.954;2022-08-02T10:31:24;25.60;1.00
6270;DHT22;3168;51.684;6.954;2022-08-02T10:34:00;25.70;1.00
6270;DHT22;3168;51.684;6.954;2022-08-02T10:36:38;25.70;1.00
6270;DHT22;3168;51.684;6.954;2022-08-02T10:39:16;25.80;1.00
6270;DHT22;3168;51.684;6.954;2022-08-02T10:41:55;25.70;1.00
6270;DHT22;3168;51.684;6.954;2022-08-02T10:44:33;25.70;1.00
6270;DHT22;3168;51.684;6.954;2022-08-02T10:47:22;25.70;1.00
6270;DHT22;3168;51.684;6.954;2022-08-02T10:50:00;25.90;1.00
6270;DHT22;3168;51.684;6.954;2022-08-02T10:52:38;25.90;1.00
6270;DHT22;3168;51.684;6.954;2022-08-02T10:55:16;25.70;1.00
6270;DHT22;3168;51.684;6.954;2022-08-02T11:00:46;26.30;1.00
6270;DHT22;3168;51.684;6.954;2022-08-02T11:03:35;26.30;1.00
6270;DHT22;3168;51.684;6.954;2022-08-02T11:06:13;26.40;1.00
6270;DHT22;3168;51.684;6.954;2022-08-02T11:09:24;26.70;1.00
6270;DHT22;3168;51.684;6.954;2022-08-02T11:11:29;26.90;1.00
6270;DHT22;3168;51.684;6.954;2022-08-02T11:14:08;27.10;1.00
6270;DHT22;3168;51.684;6.954;2022-08-02T11:17:10;27.20;1.00
6270;DHT22;3168;51.684;6.954;2022-08-02T11:22:40;26.70;1.00
6270;DHT22;3168;51.684;6.954;2022-08-02T11:25:36;26.60;1.00
6270;DHT22;3168;51.684;6.954;2022-08-02T11:28:14;26.40;1.00
6270;DHT22;3168;51.684;6.954;2022-08-02T11:30:58;26.70;1.00
6270;DHT22;3168;51.684;6.954;2022-08-02T11:33:35;26.90;1.00
6270;DHT22;3168;51.684;6.954;2022-08-02T11:36:13;26.90;1.00
6270;DHT22;3168;51.684;6.954;2022-08-02T11:39:07;27.10;1.00
6270;DHT22;3168;51.684;6.954;2022-08-02T11:41:30;27.40;1.00
6270;DHT22;3168;51.684;6.954;2022-08-02T11:44:08;27.10;1.00
6270;DHT22;3168;51.684;6.954;2022-08-02T11:46:52;26.90;1.00
6270;DHT22;3168;51.684;6.954;2022-08-02T11:49:30;26.70;1.00
6270;DHT22;3168;51.684;6.954;2022-08-02T11:52:08;26.70;1.00
6270;DHT22;3168;51.684;6.954;2022-08-02T11:54:47;26.80;1.00
6270;DHT22;3168;51.684;6.954;2022-08-02T11:57:24;26.90;1.00
6270;DHT22;3168;51.684;6.954;2022-08-02T12:00:04;27.00;1.00
6270;DHT22;3168;51.684;6.954;2022-08-02T12:02:45;27.10;1.00
6270;DHT22;3168;51.684;6.954;2022-08-02T12:05:22;27.10;1.00
6270;DHT22;3168;51.684;6.954;2022-08-02T12:08:04;27.40;1.00
6270;DHT22;3168;51.684;6.954;2022-08-02T12:10:46;27.40;1.00
6270;DHT22;3168;51.684;6.954;2022-08-02T12:13:24;27.50;1.00
6270;DHT22;3168;51.684;6.954;2022-08-02T12:16:08;27.80;1.00
6270;DHT22;3168;51.684;6.954;2022-08-02T12:18:46;28.10;1.00
6270;DHT22;3168;51.684;6.954;2022-08-02T12:21:25;28.00;1.00
6270;DHT22;3168;51.684;6.954;2022-08-02T12:24:03;28.20;1.00
6270;DHT22;3168;51.684;6.954;2022-08-02T12:26:42;28.10;1.00
6270;DHT22;3168;51.684;6.954;2022-08-02T12:29:38;28.10;1.00
6270;DHT22;3168;51.684;6.954;2022-08-02T12:32:22;28.10;1.00
6270;DHT22;3168;51.684;6.954;2022-08-02T12:37:46;28.20;1.00
6270;DHT22;3168;51.684;6.954;2022-08-02T12:40:27;28.10;1.00
6270;DHT22;3168;51.684;6.954;2022-08-02T12:43:04;28.50;1.00
6270;DHT22;3168;51.684;6.954;2022-08-02T12:45:45;28.70;1.00
6270;DHT22;3168;51.684;6.954;2022-08-02T12:48:31;28.50;1.00
6270;DHT22;3168;51.684;6.954;2022-08-02T12:51:18;28.30;1.00
6270;DHT22;3168;51.684;6.954;2022-08-02T12:54:09;28.20;1.00
6270;DHT22;3168;51.684;6.954;2022-08-02T12:56:36;28.20;1.00
6270;DHT22;3168;51.684;6.954;2022-08-02T12:59:13;28.40;1.00
6270;DHT22;3168;51.684;6.954;2022-08-02T13:01:51;28.20;1.00
6270;DHT22;3168;51.684;6.954;2022-08-02T13:04:29;28.00;1.00
6270;DHT22;3168;51.684;6.954;2022-08-02T13:07:07;27.90;1.00
6270;DHT22;3168;51.684;6.954;2022-08-02T13:09:45;27.90;1.00
6270;DHT22;3168;51.684;6.954;2022-08-02T13:12:23;28.00;1.00
6270;DHT22;3168;51.684;6.954;2022-08-02T13:15:02;28.30;1.00
6270;DHT22;3168;51.684;6.954;2022-08-02T13:17:40;28.50;1.00
6270;DHT22;3168;51.684;6.954;2022-08-02T13:20:18;28.60;1.00
6270;DHT22;3168;51.684;6.954;2022-08-02T13:22:56;28.60;1.00
6270;DHT22;3168;51.684;6.954;2022-08-02T13:25:34;28.80;1.00
6270;DHT22;3168;51.684;6.954;2022-08-02T13:28:12;28.30;1.00
6270;DHT22;3168;51.684;6.954;2022-08-02T13:30:50;28.40;1.00
6270;DHT22;3168;51.684;6.954;2022-08-02T13:33:28;28.80;1.00
6270;DHT22;3168;51.684;6.954;2022-08-02T13:36:06;28.90;1.00
6270;DHT22;3168;51.684;6.954;2022-08-02T13:38:45;29.10;1.00
6270;DHT22;3168;51.684;6.954;2022-08-02T13:41:23;29.00;1.00
6270;DHT22;3168;51.684;6.954;2022-08-02T13:44:01;29.40;1.00
6270;DHT22;3168;51.684;6.954;2022-08-02T13:46:39;29.50;1.00
6270;DHT22;3168;51.684;6.954;2022-08-02T13:49:17;29.30;1.00
6270;DHT22;3168;51.684;6.954;2022-08-02T13:51:55;29.00;1.00
6270;DHT22;3168;51.684;6.954;2022-08-02T13:54:33;28.90;1.00
6270;DHT22;3168;51.684;6.954;2022-08-02T13:57:11;28.80;1.00
6270;DHT22;3168;51.684;6.954;2022-08-02T13:59:49;29.00;1.00
6270;DHT22;3168;51.684;6.954;2022-08-02T14:02:28;29.30;1.00
6270;DHT22;3168;51.684;6.954;2022-08-02T14:05:06;29.50;1.00
6270;DHT22;3168;51.684;6.954;2022-08-02T14:07:45;29.30;1.00
6270;DHT22;3168;51.684;6.954;2022-08-02T14:10:23;29.50;1.00
6270;DHT22;3168;51.684;6.954;2022-08-02T14:13:01;29.70;1.00
6270;DHT22;3168;51.684;6.954;2022-08-02T14:15:39;29.70;1.00
6270;DHT22;3168;51.684;6.954;2022-08-02T14:18:17;30.00;1.00
6270;DHT22;3168;51.684;6.954;2022-08-02T14:20:55;29.70;1.00
6270;DHT22;3168;51.684;6.954;2022-08-02T14:23:33;30.30;1.00
6270;DHT22;3168;51.684;6.954;2022-08-02T14:26:11;30.60;1.00
6270;DHT22;3168;51.684;6.954;2022-08-02T14:28:50;30.40;1.00
6270;DHT22;3168;51.684;6.954;2022-08-02T14:31:28;30.40;1.00
6270;DHT22;3168;51.684;6.954;2022-08-02T14:34:06;30.60;1.00
6270;DHT22;3168;51.684;6.954;2022-08-02T14:36:44;30.30;1.00
6270;DHT22;3168;51.684;6.954;2022-08-02T14:39:22;30.00;1.00
6270;DHT22;3168;51.684;6.954;2022-08-02T14:42:01;30.40;1.00
6270;DHT22;3168;51.684;6.954;2022-08-02T14:44:39;30.90;1.00
6270;DHT22;3168;51.684;6.954;2022-08-02T14:47:17;31.00;1.00
6270;DHT22;3168;51.684;6.954;2022-08-02T14:49:55;31.10;1.00
6270;DHT22;3168;51.684;6.954;2022-08-02T14:52:33;31.50;1.00
6270;DHT22;3168;51.684;6.954;2022-08-02T14:55:11;31.70;1.00
6270;DHT22;3168;51.684;6.954;2022-08-02T14:57:49;32.00;1.00
6270;DHT22;3168;51.684;6.954;2022-08-02T15:00:27;32.30;1.00
6270;DHT22;3168;51.684;6.954;2022-08-02T15:03:05;31.20;1.00
6270;DHT22;3168;51.684;6.954;2022-08-02T15:05:44;31.00;1.00
6270;DHT22;3168;51.684;6.954;2022-08-02T15:08:23;30.90;1.00
6270;DHT22;3168;51.684;6.954;2022-08-02T15:11:01;30.80;1.00
6270;DHT22;3168;51.684;6.954;2022-08-02T15:13:39;30.60;1.00
6270;DHT22;3168;51.684;6.954;2022-08-02T15:16:17;30.50;1.00
6270;DHT22;3168;51.684;6.954;2022-08-02T15:18:55;30.60;1.00
6270;DHT22;3168;51.684;6.954;2022-08-02T15:21:33;30.50;1.00
6270;DHT22;3168;51.684;6.954;2022-08-02T15:24:12;31.10;1.00
6270;DHT22;3168;51.684;6.954;2022-08-02T15:26:50;30.80;1.00
6270;DHT22;3168;51.684;6.954;2022-08-02T15:29:28;30.50;1.00
6270;DHT22;3168;51.684;6.954;2022-08-02T15:32:06;30.30;1.00
6270;DHT22;3168;51.684;6.954;2022-08-02T15:34:45;30.50;1.00
6270;DHT22;3168;51.684;6.954;2022-08-02T15:37:22;31.50;1.00
6270;DHT22;3168;51.684;6.954;2022-08-02T15:40:01;31.90;1.00
6270;DHT22;3168;51.684;6.954;2022-08-02T15:42:39;32.50;1.00
6270;DHT22;3168;51.684;6.954;2022-08-02T15:45:17;33.00;1.00
6270;DHT22;3168;51.684;6.954;2022-08-02T15:47:56;31.50;1.00
6270;DHT22;3168;51.684;6.954;2022-08-02T15:50:34;31.40;1.00
6270;DHT22;3168;51.684;6.954;2022-08-02T15:53:12;31.00;1.00
6270;DHT22;3168;51.684;6.954;2022-08-02T15:55:50;30.50;1.00
6270;DHT22;3168;51.684;6.954;2022-08-02T15:58:29;30.20;1.00
6270;DHT22;3168;51.684;6.954;2022-08-02T16:01:07;30.00;1.00
6270;DHT22;3168;51.684;6.954;2022-08-02T16:03:45;29.60;1.00
6270;DHT22;3168;51.684;6.954;2022-08-02T16:06:23;29.60;1.00
6270;DHT22;3168;51.684;6.954;2022-08-02T16:09:01;29.50;1.00
6270;DHT22;3168;51.684;6.954;2022-08-02T16:11:40;29.30;1.00
6270;DHT22;3168;51.684;6.954;2022-08-02T16:14:18;29.30;1.00
6270;DHT22;3168;51.684;6.954;2022-08-02T16:16:56;29.20;1.00
6270;DHT22;3168;51.684;6.954;2022-08-02T16:19:34;29.10;1.00
6270;DHT22;3168;51.684;6.954;2022-08-02T16:22:12;29.10;1.00
6270;DHT22;3168;51.684;6.954;2022-08-02T16:24:51;29.20;1.00
6270;DHT22;3168;51.684;6.954;2022-08-02T16:27:29;29.00;1.00
6270;DHT22;3168;51.684;6.954;2022-08-02T16:30:09;29.00;1.00
6270;DHT22;3168;51.684;6.954;2022-08-02T16:32:47;29.10;1.00
6270;DHT22;3168;51.684;6.954;2022-08-02T16:35:25;29.00;1.00
6270;DHT22;3168;51.684;6.954;2022-08-02T16:38:03;28.90;1.00
6270;DHT22;3168;51.684;6.954;2022-08-02T16:40:41;28.90;1.00
6270;DHT22;3168;51.684;6.954;2022-08-02T16:43:20;28.80;1.00
6270;DHT22;3168;51.684;6.954;2022-08-02T16:45:58;28.80;1.00
6270;DHT22;3168;51.684;6.954;2022-08-02T16:48:36;28.80;1.00
6270;DHT22;3168;51.684;6.954;2022-08-02T16:51:14;28.80;1.00
6270;DHT22;3168;51.684;6.954;2022-08-02T16:53:52;28.80;1.00
6270;DHT22;3168;51.684;6.954;2022-08-02T16:56:30;28.70;1.00
6270;DHT22;3168;51.684;6.954;2022-08-02T16:59:08;28.60;1.00
6270;DHT22;3168;51.684;6.954;2022-08-02T17:01:46;28.70;1.00
6270;DHT22;3168;51.684;6.954;2022-08-02T17:04:24;28.60;1.00
6270;DHT22;3168;51.684;6.954;2022-08-02T17:07:03;28.60;1.00
6270;DHT22;3168;51.684;6.954;2022-08-02T17:09:41;28.50;1.00
6270;DHT22;3168;51.684;6.954;2022-08-02T17:12:19;28.60;1.00
6270;DHT22;3168;51.684;6.954;2022-08-02T17:14:57;28.50;1.00
6270;DHT22;3168;51.684;6.954;2022-08-02T17:17:35;28.60;1.00
6270;DHT22;3168;51.684;6.954;2022-08-02T17:20:13;28.60;1.00
6270;DHT22;3168;51.684;6.954;2022-08-02T17:22:51;28.50;1.00
6270;DHT22;3168;51.684;6.954;2022-08-02T17:25:29;28.60;1.00
6270;DHT22;3168;51.684;6.954;2022-08-02T17:28:08;28.60;1.00
6270;DHT22;3168;51.684;6.954;2022-08-02T17:30:47;28.50;1.00
6270;DHT22;3168;51.684;6.954;2022-08-02T17:33:25;28.50;1.00
6270;DHT22;3168;51.684;6.954;2022-08-02T17:36:03;28.50;1.00